Time;durP1;ratioP1;P1;durP2;ratioP2;P2;SDS_P1;SDS_P2;PMS_P1;PMS_P2;Temp;Humidity;BMP_temperature;BMP_pressure;BME280_temperature;BME280_humidity;BME280_pressure;Samples;Min_cycle;Max_cycle;Signal;HPM_P1;HPM_P2
2023/10/13 00:02:11;;;;;;;8.82;3.78;;;;;;;17.03;50.17;100154.69;5053430;28;20048;-44
2023/10/13 00:04:36;;;;;;;9.07;4.50;;;;;;;16.94;50.38;100155.03;5053613;28;20021;-44
2023/10/13 00:07:04;;;;;;;6.65;4.20;;;;;;;16.87;51.15;100161.59;5053016;28;20029;-43
2023/10/13 00:09:33;;;;;;;7.10;4.00;;;;;;;16.87;50.61;100157.06;5052951;28;20033;-47
2023/10/13 00:12:03;;;;;;;10.43;4.13;;;;;;;16.70;51.70;100159.59;5046184;28;20040;-43
2023/10/13 00:14:34;;;;;;;7.20;4.22;;;;;;;16.57;51.74;100151.75;5053923;28;20035;-46
2023/10/13 00:17:05;;;;;;;7.50;3.85;;;;;;;16.65;51.73;100156.78;5053866;28;20078;-42
2023/10/13 00:19:37;;;;;;;7.70;4.15;;;;;;;16.40;53.25;100147.06;5053264;28;20009;-43
2023/10/13 00:22:10;;;;;;;8.27;4.15;;;;;;;16.12;53.16;100141.53;5050338;28;20033;-44
2023/10/13 00:24:42;;;;;;;7.18;3.95;;;;;;;16.33;53.12;100142.84;5051492;28;20021;-47
2023/10/13 00:27:27;;;;;;;6.88;4.25;;;;;;;16.19;52.82;100137.69;5053496;28;20029;-46
2023/10/13 00:30:14;;;;;;;7.70;4.32;;;;;;;16.49;52.75;100141.38;5053287;28;20083;-45
2023/10/13 00:32:40;;;;;;;6.05;3.80;;;;;;;16.45;52.19;100140.16;5053232;28;20029;-44
2023/10/13 00:35:06;;;;;;;10.45;3.90;;;;;;;16.44;52.41;100136.69;5053147;28;20032;-44
2023/10/13 00:37:41;;;;;;;9.65;3.90;;;;;;;16.32;51.57;100139.34;5043619;28;20045;-44
2023/10/13 00:40:16;;;;;;;7.63;3.70;;;;;;;16.10;52.90;100143.63;5043358;28;20037;-44
2023/10/13 00:42:50;;;;;;;6.70;3.72;;;;;;;16.12;53.20;100136.16;5053298;28;20396;-43
2023/10/13 00:45:17;;;;;;;10.73;4.50;;;;;;;16.18;52.16;100111.91;5053248;28;20028;-43
2023/10/13 00:47:56;;;;;;;6.40;3.63;;;;;;;16.36;51.82;100131.66;5053136;28;20031;-47
2023/10/13 00:50:23;;;;;;;7.43;3.88;;;;;;;16.44;51.91;100135.88;5052950;28;20106;-45
2023/10/13 00:52:50;;;;;;;8.82;4.03;;;;;;;16.39;51.99;100123.97;5052866;28;20094;-45
2023/10/13 00:55:19;;;;;;;8.77;4.15;;;;;;;16.39;52.37;100129.34;5052938;28;20021;-45
2023/10/13 00:57:46;;;;;;;6.85;3.90;;;;;;;16.46;51.40;100126.53;5052988;28;20080;-44
2023/10/13 01:00:18;;;;;;;7.38;3.80;;;;;;;16.49;52.09;100122.56;5064761;28;20089;-43
2023/10/13 01:02:45;;;;;;;6.28;3.75;;;;;;;16.39;51.94;100118.59;5072488;28;20054;-43
2023/10/13 01:05:19;;;;;;;6.25;3.70;;;;;;;16.49;52.21;100117.19;5071689;28;20027;-43
2023/10/13 01:07:46;;;;;;;8.32;3.92;;;;;;;16.19;52.32;100123.47;5072448;28;20048;-44
2023/10/13 01:10:14;;;;;;;7.70;4.00;;;;;;;15.89;52.26;100118.94;5061151;28;20021;-44
2023/10/13 01:12:42;;;;;;;7.40;4.10;;;;;;;15.98;53.02;100122.13;5052471;28;20025;-44
2023/10/13 01:15:10;;;;;;;9.38;3.80;;;;;;;15.79;53.35;100124.06;5051687;28;20440;-44
2023/10/13 01:17:36;;;;;;;8.00;4.30;;;;;;;15.37;54.93;100119.44;5050986;28;20536;-45
2023/10/13 01:20:04;;;;;;;6.88;4.30;;;;;;;15.11;54.34;100123.25;5050847;28;20147;-44
2023/10/13 01:22:31;;;;;;;7.15;4.25;;;;;;;15.20;55.03;100124.59;5050467;28;20029;-45
2023/10/13 01:25:12;;;;;;;7.47;4.00;;;;;;;15.46;54.31;100122.63;5051108;28;20024;-44
2023/10/13 01:27:38;;;;;;;9.60;4.28;;;;;;;15.39;54.02;100111.97;5049272;28;20028;-44
2023/10/13 01:30:22;;;;;;;7.80;4.20;;;;;;;15.57;53.09;100121.03;5048162;28;20017;-42
2023/10/13 01:32:49;;;;;;;7.85;4.00;;;;;;;15.77;52.72;100126.16;5052522;28;20023;-43
2023/10/13 01:35:18;;;;;;;6.38;4.10;;;;;;;15.86;52.35;100127.47;5051970;28;20033;-45
2023/10/13 01:37:44;;;;;;;5.93;4.37;;;;;;;15.83;52.98;100126.06;5051709;28;20041;-45
2023/10/13 01:40:11;;;;;;;9.50;4.20;;;;;;;15.88;52.97;100122.69;5052028;28;20032;-44
2023/10/13 01:42:37;;;;;;;5.32;4.07;;;;;;;15.84;52.76;100126.88;5051756;28;20024;-44
2023/10/13 01:45:05;;;;;;;7.07;4.20;;;;;;;15.88;53.99;100122.69;5051740;28;20082;-44
2023/10/13 01:47:33;;;;;;;7.90;4.10;;;;;;;15.91;53.40;100122.22;5051762;28;20025;-45
2023/10/13 01:50:06;;;;;;;7.32;4.10;;;;;;;15.92;52.59;100113.13;5052202;28;20121;-46
2023/10/13 01:52:32;;;;;;;7.90;4.38;;;;;;;16.04;52.78;100121.22;5051850;28;20024;-46
2023/10/13 01:55:01;;;;;;;9.20;4.65;;;;;;;15.84;53.12;100118.84;5051740;28;20021;-44
2023/10/13 01:57:28;;;;;;;9.55;4.75;;;;;;;15.74;54.18;100118.56;5051399;28;20079;-44
2023/10/13 01:59:55;;;;;;;5.90;3.92;;;;;;;15.73;54.07;100123.09;5051712;28;20546;-41
2023/10/13 02:02:29;;;;;;;7.35;4.45;;;;;;;15.71;54.10;100116.31;5051579;28;20033;-45
2023/10/13 02:05:00;;;;;;;7.00;4.43;;;;;;;15.74;53.69;100114.00;5051694;28;20020;-44
2023/10/13 02:07:34;;;;;;;9.02;4.45;;;;;;;15.76;53.78;100111.09;5051580;28;20104;-43
2023/10/13 02:10:03;;;;;;;5.95;3.97;;;;;;;15.69;54.05;100110.34;5051200;28;20025;-44
2023/10/13 02:12:36;;;;;;;7.97;4.55;;;;;;;15.92;53.80;100106.97;5051684;28;20431;-43
2023/10/13 02:15:04;;;;;;;9.68;4.43;;;;;;;15.89;53.99;100107.41;5051664;28;20035;-44
2023/10/13 02:17:39;;;;;;;8.18;4.70;;;;;;;15.95;53.84;100106.47;5051432;28;20449;-47
2023/10/13 02:20:08;;;;;;;7.47;4.45;;;;;;;16.05;53.58;100098.69;5051375;28;20017;-47
2023/10/13 02:22:35;;;;;;;7.60;4.40;;;;;;;15.99;53.72;100111.19;5051234;28;20053;-43
2023/10/13 02:25:06;;;;;;;8.30;4.45;;;;;;;16.11;53.19;100113.06;5051065;28;20028;-43
2023/10/13 02:27:40;;;;;;;9.82;4.68;;;;;;;15.98;53.49;100117.56;5051418;28;20032;-44
2023/10/13 02:30:12;;;;;;;7.88;4.35;;;;;;;16.05;52.47;100122.03;5050915;28;20524;-44
2023/10/13 02:32:40;;;;;;;6.07;4.03;;;;;;;15.76;53.28;100122.66;5051037;28;20036;-46
2023/10/13 02:35:08;;;;;;;10.88;4.70;;;;;;;15.73;53.07;100123.09;5051139;28;20024;-42
2023/10/13 02:37:35;;;;;;;10.60;4.55;;;;;;;15.61;53.62;100122.19;5050731;28;20045;-44
2023/10/13 02:40:01;;;;;;;8.05;4.45;;;;;;;15.61;53.30;100119.53;5050832;28;20091;-46
2023/10/13 02:42:26;;;;;;;9.27;4.35;;;;;;;15.75;57.22;100121.03;5050658;28;20059;-44
2023/10/13 02:44:55;;;;;;;21.25;5.30;;;;;;;16.10;53.56;100117.59;5050768;28;20510;-45
2023/10/13 02:47:23;;;;;;;15.52;4.63;;;;;;;16.17;52.72;100118.31;5050712;28;20151;-43
2023/10/13 02:49:49;;;;;;;13.13;4.38;;;;;;;16.04;52.73;100110.47;5050664;28;20115;-45
2023/10/13 02:52:15;;;;;;;12.98;4.38;;;;;;;16.01;52.77;100111.75;5050919;28;20121;-42
2023/10/13 02:54:47;;;;;;;6.75;4.20;;;;;;;15.83;52.62;100106.47;5051029;28;20025;-43
2023/10/13 02:57:15;;;;;;;7.53;4.50;;;;;;;15.82;52.28;100121.75;5051019;28;20028;-44
2023/10/13 02:59:46;;;;;;;8.88;4.90;;;;;;;15.56;52.43;100109.47;5051006;28;20029;-43
2023/10/13 03:02:23;;;;;;;10.35;5.10;;;;;;;15.47;53.37;100113.53;5050917;28;20441;-43
2023/10/13 03:04:59;;;;;;;13.93;5.45;;;;;;;15.39;54.01;100111.16;5050817;28;20021;-43
2023/10/13 03:07:28;;;;;;;10.02;5.35;;;;;;;15.29;53.86;100106.34;5050669;28;20095;-47
2023/10/13 03:09:57;;;;;;;11.90;5.15;;;;;;;15.33;54.47;100106.72;5050539;28;20071;-43
2023/10/13 03:12:24;;;;;;;6.53;4.90;;;;;;;15.33;55.16;100102.16;5050135;28;20040;-42
2023/10/13 03:15:09;;;;;;;11.45;6.68;;;;;;;15.43;54.48;100101.63;5050378;28;20364;-44
2023/10/13 03:17:35;;;;;;;10.40;5.63;;;;;;;15.43;53.94;100104.31;5050044;28;20033;-43
2023/10/13 03:20:00;;;;;;;7.18;5.30;;;;;;;15.29;53.59;100095.63;5049736;28;20511;-43
2023/10/13 03:22:32;;;;;;;10.05;5.43;;;;;;;15.24;55.31;100100.81;5049817;28;20075;-42
2023/10/13 03:25:13;;;;;;;10.93;5.10;;;;;;;15.38;54.07;100099.63;5049817;28;20025;-45
2023/10/13 03:28:24;;;;;;;8.27;5.22;;;;;;;15.38;54.77;100101.47;5050107;28;20029;-45
2023/10/13 03:30:35;;;;;;;9.23;6.05;;;;;;;15.36;54.44;100090.16;5044263;28;20120;-44
2023/10/13 03:33:12;;;;;;;11.98;6.85;;;;;;;15.14;54.46;100087.97;5050379;28;20025;-43
2023/10/13 03:35:38;;;;;;;8.48;5.13;;;;;;;14.93;55.63;100099.16;5049963;28;20478;-43
2023/10/13 03:38:14;;;;;;;7.78;4.90;;;;;;;14.98;55.12;100088.56;5049433;28;20471;-46
2023/10/13 03:40:40;;;;;;;6.22;4.45;;;;;;;14.97;55.56;100085.06;5049975;28;20028;-46
2023/10/13 03:43:11;;;;;;;10.60;5.07;;;;;;;15.01;54.56;100086.25;5048252;28;20043;-43
2023/10/13 03:45:47;;;;;;;6.82;4.97;;;;;;;14.98;54.88;100083.19;5049437;28;20503;-43
2023/10/13 03:51:06;;;;;;;10.07;5.22;;;;;;;15.07;54.87;100073.81;5046633;28;20186;-46
2023/10/13 03:53:45;;;;;;;9.80;4.60;;;;;;;15.03;55.02;100078.81;5049642;28;20481;-45
2023/10/13 03:56:15;;;;;;;11.13;5.30;;;;;;;14.88;55.46;100056.13;5049179;28;20401;-46
2023/10/13 03:58:53;;;;;;;10.13;4.97;;;;;;;15.03;54.85;100069.94;5049934;28;20025;-48
2023/10/13 04:01:23;;;;;;;8.20;5.00;;;;;;;15.29;56.64;100076.84;5053363;28;20036;-42
2023/10/13 04:04:03;;;;;;;7.82;4.75;;;;;;;15.56;55.08;100082.66;5054477;28;20025;-43
2023/10/13 04:10:10;;;;;;;11.98;4.88;;;;;;;15.70;55.08;100088.66;5054093;28;20060;-39
2023/10/13 04:17:27;;;;;;;10.13;5.15;;;;;;;15.61;53.05;100090.84;5054289;28;20117;-40
2023/10/13 04:30:58;;;;;;;8.95;5.75;;;;;;;15.53;53.91;100093.03;5053054;28;20449;-40
2023/10/13 04:36:16;;;;;;;11.63;4.72;;;;;;;15.03;55.79;100100.25;5053512;28;20052;-40
2023/10/13 04:38:59;;;;;;;8.98;4.18;;;;;;;14.63;56.59;100121.28;5053362;28;20459;-39
2023/10/13 04:41:57;;;;;;;9.70;4.70;;;;;;;14.83;55.96;100118.38;5053519;28;20477;-39
2023/10/13 04:49:29;;;;;;;13.23;4.90;;;;;;;15.33;54.71;100106.72;5051158;28;20468;-39
2023/10/13 04:54:45;;;;;;;14.43;6.00;;;;;;;15.34;55.20;100119.88;5052444;28;20033;-42
2023/10/13 06:29:55;;;;;;;9.23;4.70;;;;;;;25.41;32.62;100163.81;5050374;28;20036;-39
2023/10/13 06:32:25;;;;;;;8.25;4.50;;;;;;;25.78;32.06;100160.34;5050304;28;20029;-40
2023/10/13 06:34:57;;;;;;;9.18;4.18;;;;;;;26.34;31.20;100158.66;5050609;28;20033;-41
2023/10/13 06:37:25;;;;;;;6.95;4.20;;;;;;;26.75;30.62;100152.50;5050081;28;20049;-40
2023/10/13 06:39:51;;;;;;;7.68;4.30;;;;;;;26.89;30.51;100152.50;5050431;28;20547;-40
2023/10/13 06:42:19;;;;;;;10.10;4.20;;;;;;;27.23;30.46;100162.22;5050323;28;20029;-42
2023/10/13 06:44:47;;;;;;;13.65;4.10;;;;;;;27.53;29.70;100163.53;5050017;28;20103;-41
2023/10/13 06:47:13;;;;;;;7.13;4.40;;;;;;;27.38;29.91;100161.09;5050022;28;20515;-42
2023/10/13 06:49:43;;;;;;;10.43;4.68;;;;;;;27.55;29.21;100160.47;5050315;28;20128;-40
2023/10/13 06:52:12;;;;;;;7.55;4.40;;;;;;;27.36;29.64;100160.59;5050304;28;20021;-43
2023/10/13 06:54:41;;;;;;;;;;;;;;;27.75;29.11;100145.53;5050891;28;20112;-41
2023/10/13 06:57:20;;;;;;;10.30;4.60;;;;;;;27.71;29.27;100145.34;5049985;28;19999;-41
2023/10/13 06:59:46;;;;;;;11.60;4.55;;;;;;;27.95;28.89;100156.03;5050075;28;20108;-39
2023/10/13 07:02:21;;;;;;;7.00;4.10;;;;;;;27.94;29.06;100151.69;5050311;28;20036;-40
2023/10/13 07:04:47;;;;;;;13.30;4.10;;;;;;;28.05;28.88;100155.78;5050553;28;20029;-41
2023/10/13 07:07:15;;;;;;;7.93;3.70;;;;;;;28.26;28.25;100160.75;5050075;28;20100;-42
2023/10/13 07:09:49;;;;;;;9.43;4.07;;;;;;;28.62;27.93;100146.19;5049854;28;20053;-41
2023/10/13 07:12:26;;;;;;;6.18;4.40;;;;;;;28.88;27.36;100154.50;5049852;28;20029;-39
2023/10/13 07:14:52;;;;;;;8.82;4.22;;;;;;;28.44;27.90;100150.72;5050307;28;20194;-41
2023/10/13 07:17:24;;;;;;;9.20;3.70;;;;;;;28.71;27.78;100154.41;5049814;28;20025;-43
2023/10/13 07:19:55;;;;;;;8.95;3.55;;;;;;;29.13;27.48;100163.97;5049745;28;20025;-40
2023/10/13 07:22:21;;;;;;;6.40;3.75;;;;;;;28.65;27.79;100167.44;5050167;28;20051;-41
2023/10/13 07:24:48;;;;;;;10.00;3.67;;;;;;;29.16;27.27;100163.31;5050216;28;20029;-41
2023/10/13 07:27:24;;;;;;;7.50;3.55;;;;;;;29.49;26.70;100156.63;5050025;28;20154;-40
2023/10/13 07:30:40;;;;;;;13.15;3.60;;;;;;;29.77;26.64;100144.25;5050220;28;20052;-41
2023/10/13 07:32:46;;;;;;;7.45;3.72;;;;;;;29.81;26.51;100156.19;5044137;28;20037;-42
2023/10/13 07:35:17;;;;;;;5.63;3.85;;;;;;;29.70;26.46;100143.91;5052233;28;20124;-40
2023/10/13 07:37:43;;;;;;;9.50;3.97;;;;;;;29.87;26.10;100142.31;5053394;28;20045;-42
2023/10/13 07:43:00;;;;;;;6.78;3.90;;;;;;;30.39;26.05;100137.59;5053669;28;20130;-41
2023/10/13 07:45:38;;;;;;;10.45;4.00;;;;;;;30.21;25.12;100155.19;5050891;28;20548;-41
2023/10/13 07:48:12;;;;;;;7.10;4.00;;;;;;;29.54;26.41;100135.34;5048970;28;20036;-42
2023/10/13 07:50:41;;;;;;;8.82;3.75;;;;;;;29.84;26.25;100149.25;5051511;28;20017;-44
2023/10/13 07:53:34;;;;;;;13.13;3.95;;;;;;;30.25;25.89;100142.41;5050189;28;20029;-39
2023/10/13 07:55:55;;;;;;;11.85;3.60;;;;;;;30.45;26.02;100149.19;5050787;28;20051;-43
2023/10/13 07:58:24;;;;;;;8.80;4.10;;;;;;;30.69;24.83;100131.34;5053196;28;20024;-42
2023/10/13 08:00:54;;;;;;;;;;;;;;;30.57;24.14;100141.06;5053044;28;20106;-39
2023/10/13 08:03:35;;;;;;;8.43;3.83;;;;;;;29.87;25.22;100140.38;5049593;28;20304;-39
2023/10/13 08:06:06;;;;;;;7.05;3.80;;;;;;;29.97;26.33;100140.06;5052333;28;20047;-40
2023/10/13 08:08:39;;;;;;;10.48;4.35;;;;;;;30.30;25.23;100147.75;5048857;28;20329;-40
2023/10/13 08:11:24;;;;;;;10.68;8.15;;;;;;;30.24;25.51;100151.00;5042882;28;20098;-41
2023/10/13 08:13:54;;;;;;;12.88;6.30;;;;;;;30.37;25.13;100148.09;5053592;28;20096;-41
2023/10/13 08:16:23;;;;;;;7.40;3.47;;;;;;;30.77;24.67;100136.00;5054086;28;20025;-44
2023/10/13 08:18:49;;;;;;;6.68;3.30;;;;;;;30.71;24.36;100132.63;5050312;28;20021;-41
2023/10/13 08:21:22;;;;;;;10.30;4.05;;;;;;;30.49;24.90;100132.88;5052739;28;20032;-41
2023/10/13 08:34:59;;;;;;;7.22;4.20;;;;;;;30.11;24.99;100115.16;5032290;28;20061;-43
2023/10/13 08:48:07;;;;;;;9.85;3.75;;;;;;;29.52;26.44;100106.66;5030989;28;20462;-43
2023/10/13 08:50:48;;;;;;;8.10;4.20;;;;;;;30.14;25.07;100108.22;5031648;28;20036;-43
2023/10/13 09:12:17;;;;;;;9.38;3.90;;;;;;;29.88;26.22;100089.88;5031797;28;20021;-41
2023/10/13 09:14:48;;;;;;;6.88;3.78;;;;;;;30.14;25.60;100083.53;5032206;28;20032;-45
2023/10/13 09:19:58;;;;;;;9.82;4.18;;;;;;;30.13;25.46;100084.66;5032018;28;20032;-44
2023/10/13 09:22:37;;;;;;;8.55;3.65;;;;;;;30.16;25.92;100076.59;5032033;28;20075;-42
2023/10/13 09:25:13;;;;;;;9.15;3.75;;;;;;;30.12;25.99;100078.38;5031945;28;20409;-44
2023/10/13 09:27:39;;;;;;;7.97;3.88;;;;;;;29.44;26.05;100076.16;5043457;28;20057;-41
2023/10/13 09:32:45;;;;;;;8.27;4.13;;;;;;;29.41;25.91;100079.53;5051858;28;20461;-44
2023/10/13 09:35:15;;;;;;;7.97;3.63;;;;;;;29.55;26.20;100089.53;5051988;28;20104;-44
2023/10/13 09:37:42;;;;;;;10.13;3.60;;;;;;;29.52;26.37;100091.00;5051565;28;20045;-42
2023/10/13 09:40:25;;;;;;;5.53;3.88;;;;;;;29.68;25.81;100085.03;5051650;28;20181;-44
2023/10/13 09:42:51;;;;;;;9.40;3.78;;;;;;;29.92;25.88;100077.13;5051715;28;20025;-45
2023/10/13 09:45:17;;;;;;;9.45;3.70;;;;;;;29.89;25.60;100088.75;5051562;28;20029;-45
2023/10/13 09:47:50;;;;;;;6.30;3.80;;;;;;;30.53;24.93;100078.91;5051348;28;20099;-45
2023/10/13 09:50:25;;;;;;;10.38;3.58;;;;;;;31.05;24.38;100075.91;5051553;28;20032;-47
2023/10/13 09:52:52;;;;;;;9.60;3.75;;;;;;;31.55;24.28;100080.59;5050818;28;20036;-45
2023/10/13 09:55:25;;;;;;;7.32;4.10;;;;;;;31.08;24.54;100071.69;5050936;28;20078;-44
2023/10/13 09:58:09;;;;;;;7.43;3.95;;;;;;;31.38;23.76;100070.50;5050676;28;20029;-45
2023/10/13 10:00:55;;;;;;;9.93;3.85;;;;;;;30.90;24.61;100071.81;5050813;28;20035;-43
2023/10/13 10:03:39;;;;;;;7.43;3.67;;;;;;;30.24;24.99;100063.19;5051113;28;20025;-42
2023/10/13 10:06:14;;;;;;;8.50;3.70;;;;;;;30.37;24.75;100054.75;5050853;28;20488;-43
2023/10/13 10:08:50;;;;;;;5.95;3.78;;;;;;;30.22;25.21;100052.53;5051709;28;20025;-43
2023/10/13 10:11:40;;;;;;;6.40;3.80;;;;;;;30.75;24.80;100058.63;5051530;28;20039;-43
2023/10/13 10:14:59;;;;;;;5.97;4.03;;;;;;;31.34;24.29;100060.53;5051638;28;20036;-42
2023/10/13 10:17:29;;;;;;;7.35;3.70;;;;;;;30.72;25.08;100043.59;5009397;28;20029;-44
2023/10/13 10:19:56;;;;;;;6.80;3.88;;;;;;;30.97;24.79;100041.06;5048192;28;20095;-44
2023/10/13 10:22:54;;;;;;;8.25;3.97;;;;;;;30.98;24.81;100037.19;5050917;28;20099;-43
2023/10/13 10:25:28;;;;;;;15.38;4.00;;;;;;;31.13;24.26;100024.78;5050128;28;20495;-41
2023/10/13 10:27:58;;;;;;;8.60;3.70;;;;;;;31.10;24.52;100029.00;5050769;28;20051;-42
2023/10/13 10:30:33;;;;;;;7.00;4.20;;;;;;;31.50;24.66;100020.28;5049598;28;20024;-41
2023/10/13 10:33:00;;;;;;;10.93;4.50;;;;;;;31.72;24.28;100015.53;5050711;28;20032;-43
2023/10/13 10:35:29;;;;;;;7.60;4.93;;;;;;;32.03;23.99;100019.78;5050528;28;20467;-44
2023/10/13 10:38:11;;;;;;;12.65;8.95;;;;;;;32.13;24.28;100006.38;5050285;28;20492;-42
2023/10/13 10:40:51;;;;;;;9.02;4.93;;;;;;;32.36;23.55;100002.38;5050415;28;20060;-45
2023/10/13 10:43:18;;;;;;;18.17;7.93;;;;;;;32.29;23.59;100005.69;5050840;28;20528;-43
2023/10/13 10:45:50;;;;;;;10.55;5.63;;;;;;;32.28;23.38;99995.84;5050740;28;20028;-43
2023/10/13 10:48:20;;;;;;;12.10;5.45;;;;;;;32.71;22.99;99998.03;5050552;28;20030;-41
2023/10/13 10:50:55;;;;;;;5.88;3.70;;;;;;;32.84;22.30;99995.25;5050397;28;20315;-46
2023/10/13 10:53:22;;;;;;;6.72;3.83;;;;;;;32.99;22.87;99989.00;5050234;28;20078;-45
2023/10/13 10:55:48;;;;;;;8.68;4.40;;;;;;;33.36;22.38;99988.91;5050341;28;20025;-47
2023/10/13 10:58:28;;;;;;;10.50;3.92;;;;;;;33.42;22.21;99995.78;5050729;28;20515;-43
2023/10/13 11:01:23;;;;;;;9.02;4.00;;;;;;;33.60;22.36;99981.66;5050522;28;20017;-46
2023/10/13 11:06:56;;;;;;;7.65;4.00;;;;;;;33.29;21.30;99981.25;5034664;28;20037;-46
2023/10/13 11:09:36;;;;;;;10.35;3.78;;;;;;;33.11;21.77;99972.47;5051590;28;20083;-43
2023/10/13 11:12:14;;;;;;;9.73;4.10;;;;;;;33.14;21.98;99973.72;5054269;28;20025;-46
2023/10/13 11:14:40;;;;;;;9.88;4.13;;;;;;;33.18;22.17;99976.59;5054298;28;20570;-43
2023/10/13 11:17:51;;;;;;;10.35;4.28;;;;;;;33.25;22.59;99972.06;5054682;28;20029;-45
2023/10/13 11:19:55;;;;;;;8.43;3.95;;;;;;;33.86;21.75;99967.41;5048457;28;20465;-44
2023/10/13 11:22:36;;;;;;;6.55;3.90;;;;;;;34.08;20.84;99963.22;5053781;28;20021;-46
2023/10/13 11:25:09;;;;;;;8.68;4.30;;;;;;;33.83;21.74;99960.66;5054841;28;20036;-42
2023/10/13 11:30:20;;;;;;;11.25;3.70;;;;;;;33.35;21.52;99947.91;5054919;28;20032;-43
2023/10/13 11:33:00;;;;;;;9.35;3.72;;;;;;;33.50;21.74;99945.16;5054512;28;20025;-43
2023/10/13 11:35:48;;;;;;;7.88;4.10;;;;;;;33.75;21.11;99944.25;5054058;28;20044;-43
2023/10/13 11:38:15;;;;;;;10.48;5.32;;;;;;;33.52;21.46;99938.50;5053734;28;20048;-44
2023/10/13 11:40:44;;;;;;;7.95;3.95;;;;;;;33.46;21.57;99941.53;5053803;28;20047;-43
2023/10/13 11:43:15;;;;;;;6.18;3.92;;;;;;;33.46;21.72;99938.75;5053976;28;20419;-46
2023/10/13 11:48:36;;;;;;;9.27;4.38;;;;;;;33.91;21.10;99944.25;5053356;28;20046;-46
2023/10/13 11:51:08;;;;;;;14.88;4.18;;;;;;;34.09;20.88;99940.78;5052879;28;20033;-44
2023/10/13 11:53:37;;;;;;;7.90;3.92;;;;;;;34.21;21.03;99942.66;5054253;28;20033;-46
2023/10/13 11:56:10;;;;;;;6.97;4.10;;;;;;;34.21;21.14;99937.13;5054042;28;20021;-43
2023/10/13 11:58:39;;;;;;;7.43;4.30;;;;;;;34.16;21.09;99928.34;5054436;28;20020;-44
2023/10/13 12:11:45;;;;;;;6.85;4.00;;;;;;;34.28;21.06;99931.78;5054282;28;20029;-43
2023/10/13 12:14:16;;;;;;;7.70;3.90;;;;;;;34.34;21.18;99931.50;5053134;28;20028;-44
2023/10/13 12:16:43;;;;;;;8.13;3.95;;;;;;;34.48;20.87;99929.06;5053694;28;20041;-42
2023/10/13 12:19:11;;;;;;;7.13;4.00;;;;;;;34.39;20.57;99929.28;5052849;28;20021;-42
2023/10/13 12:21:37;;;;;;;7.55;4.07;;;;;;;33.97;21.44;99926.28;5051100;28;20100;-42
2023/10/13 12:24:03;;;;;;;8.55;3.53;;;;;;;34.33;20.59;99929.91;5050068;28;20036;-43
2023/10/13 12:26:32;;;;;;;5.93;3.85;;;;;;;34.62;20.54;99923.84;5050288;28;20025;-41
2023/10/13 12:29:06;;;;;;;8.20;3.72;;;;;;;34.25;19.97;99924.22;5050329;28;20500;-45
2023/10/13 12:31:33;;;;;;;7.70;3.70;;;;;;;34.33;20.20;99927.97;5050523;28;20455;-41
2023/10/13 12:34:06;;;;;;;7.43;3.60;;;;;;;34.50;19.50;99923.19;5050890;28;20025;-41
2023/10/13 12:36:41;;;;;;;6.38;3.15;;;;;;;34.79;19.27;99932.94;5052320;28;20017;-42
2023/10/13 12:50:08;;;;;;;6.60;3.35;;;;;;;35.51;18.15;99928.78;5052877;28;20372;-41
2023/10/13 12:52:33;;;;;;;6.03;3.33;;;;;;;35.30;18.64;99913.44;5053349;28;20052;-42
2023/10/13 12:55:06;;;;;;;6.63;3.78;;;;;;;35.09;18.43;99916.56;5053338;28;20029;-46
2023/10/13 12:57:32;;;;;;;8.27;3.55;;;;;;;34.82;18.61;99916.44;5052794;28;20064;-42
2023/10/13 12:59:58;;;;;;;6.68;3.70;;;;;;;34.53;18.92;99916.94;5052970;28;20044;-45
2023/10/13 13:02:25;;;;;;;8.93;3.47;;;;;;;34.77;17.50;99915.91;5052728;28;20404;-43
2023/10/13 13:04:56;;;;;;;5.60;3.35;;;;;;;34.27;17.79;99913.63;5052620;28;20021;-43
2023/10/13 13:07:28;;;;;;;6.70;3.28;;;;;;;34.17;18.15;99913.38;5052234;28;20056;-41
2023/10/13 13:09:58;;;;;;;6.63;3.40;;;;;;;33.83;19.49;99910.97;5052140;28;20039;-43
2023/10/13 13:12:24;;;;;;;7.22;3.60;;;;;;;33.68;18.68;99901.53;5052176;28;20032;-40
2023/10/13 13:14:54;;;;;;;4.93;2.80;;;;;;;33.60;18.82;99907.97;5052084;28;20017;-42
2023/10/13 13:17:20;;;;;;;7.90;3.30;;;;;;;33.71;18.85;99905.53;5052269;28;20025;-41
2023/10/13 13:19:45;;;;;;;7.10;3.33;;;;;;;33.67;18.97;99905.44;5052172;28;20483;-42
2023/10/13 13:22:13;;;;;;;7.97;3.45;;;;;;;33.78;18.78;99905.72;5051992;28;20032;-42
2023/10/13 13:24:47;;;;;;;7.93;5.47;;;;;;;33.79;19.19;99903.75;5050172;28;20013;-44
2023/10/13 13:27:14;;;;;;;12.02;6.22;;;;;;;33.59;19.27;99900.88;5051439;28;20043;-43
2023/10/13 13:29:41;;;;;;;9.18;4.32;;;;;;;33.75;19.54;99906.41;5052059;28;20104;-41
2023/10/13 13:32:17;;;;;;;7.55;3.60;;;;;;;33.85;18.74;99897.63;5050888;28;20060;-43
2023/10/13 13:34:42;;;;;;;6.55;3.20;;;;;;;33.61;19.00;99911.56;5051904;28;20032;-43
2023/10/13 13:37:07;;;;;;;6.45;3.42;;;;;;;33.32;19.23;99902.53;5051495;28;20098;-44
2023/10/13 13:39:33;;;;;;;4.80;3.28;;;;;;;33.19;19.03;99895.50;5051568;28;20032;-44
2023/10/13 13:41:58;;;;;;;7.00;3.42;;;;;;;32.81;19.66;99905.84;5051575;28;20658;-44
2023/10/13 13:44:29;;;;;;;5.03;3.30;;;;;;;32.81;19.67;99899.53;5051254;28;20083;-42
2023/10/13 13:46:56;;;;;;;5.85;3.17;;;;;;;32.23;19.68;99897.75;5051708;28;20495;-40
2023/10/13 13:49:29;;;;;;;8.52;3.47;;;;;;;32.36;19.75;99892.25;5051691;28;20183;-42
2023/10/13 13:51:55;;;;;;;6.20;3.25;;;;;;;32.10;20.32;99898.91;5050989;28;20025;-40
2023/10/13 13:54:20;;;;;;;9.57;3.53;;;;;;;31.99;20.35;99901.31;5050623;28;20029;-41
2023/10/13 13:56:47;;;;;;;13.35;3.80;;;;;;;31.93;20.81;99894.44;5050497;28;20029;-40
2023/10/13 13:59:15;;;;;;;10.57;3.83;;;;;;;31.88;21.27;99895.47;5050679;28;20082;-43
2023/10/13 14:01:44;;;;;;;15.85;3.67;;;;;;;31.96;20.39;99893.75;5050755;28;20079;-43
2023/10/13 14:04:10;;;;;;;14.00;3.63;;;;;;;31.71;21.39;99896.47;5050794;28;20550;-42
2023/10/13 14:06:37;;;;;;;11.60;3.58;;;;;;;31.52;20.93;99894.28;5050366;28;20044;-42
2023/10/13 14:09:05;;;;;;;6.32;3.20;;;;;;;31.20;21.04;99897.81;5048368;28;20017;-44
2023/10/13 14:14:13;;;;;;;11.48;3.40;;;;;;;30.68;21.69;99888.88;5047522;28;20111;-45
2023/10/13 14:16:47;;;;;;;6.53;3.05;;;;;;;30.47;21.83;99891.63;5030670;28;20048;-44
2023/10/13 14:19:19;;;;;;;7.32;3.58;;;;;;;30.47;22.05;99891.63;5030525;28;20049;-45
2023/10/13 14:21:45;;;;;;;8.32;3.03;;;;;;;30.46;21.97;99889.19;5031049;28;20029;-42
2023/10/13 14:24:14;;;;;;;10.30;3.20;;;;;;;30.34;21.56;99884.44;5031058;28;20117;-42
2023/10/13 14:26:42;;;;;;;5.38;2.90;;;;;;;30.63;21.58;99880.84;5031888;28;20037;-40
2023/10/13 14:29:09;;;;;;;7.65;2.90;;;;;;;30.40;21.61;99880.34;5050767;28;20161;-43
2023/10/13 14:31:39;;;;;;;7.05;3.00;;;;;;;30.30;21.41;99880.72;5050380;28;20561;-42
2023/10/13 14:34:04;;;;;;;7.80;3.10;;;;;;;30.24;21.22;99877.38;5051162;28;20032;-43
2023/10/13 14:36:34;;;;;;;6.63;2.80;;;;;;;30.01;21.50;99871.38;5050736;28;20036;-41
2023/10/13 14:39:00;;;;;;;7.60;3.08;;;;;;;30.25;21.33;99867.97;5050882;28;20029;-41
2023/10/13 14:41:26;;;;;;;8.38;3.13;;;;;;;30.19;21.98;99872.84;5050428;28;20025;-40
2023/10/13 14:43:51;;;;;;;6.88;2.92;;;;;;;30.21;21.29;99872.53;5049447;28;20310;-41
2023/10/13 14:46:22;;;;;;;5.20;2.90;;;;;;;30.32;22.26;99881.22;5050318;28;20017;-43
2023/10/13 14:48:51;;;;;;;8.85;2.90;;;;;;;30.33;23.13;99875.41;5050311;28;20036;-44
2023/10/13 14:51:16;;;;;;;7.50;3.72;;;;;;;30.16;21.97;99878.22;5049315;28;20021;-42
2023/10/13 14:53:46;;;;;;;7.00;3.10;;;;;;;29.97;22.66;99873.97;5050639;28;20025;-43
2023/10/13 14:56:13;;;;;;;5.85;2.80;;;;;;;30.17;22.80;99874.34;5050019;28;20534;-49
2023/10/13 14:58:42;;;;;;;6.78;2.97;;;;;;;29.55;22.65;99873.78;5049949;28;20104;-45
2023/10/13 15:01:19;;;;;;;10.57;3.42;;;;;;;29.55;23.72;99870.22;5049818;28;20021;-45
2023/10/13 15:03:51;;;;;;;7.15;2.80;;;;;;;29.73;23.51;99871.00;5049768;28;20032;-46
2023/10/13 15:06:28;;;;;;;5.97;3.20;;;;;;;29.59;23.64;99863.78;5050069;28;20095;-47
2023/10/13 15:08:55;;;;;;;8.48;3.13;;;;;;;29.59;23.60;99863.78;5049979;28;20032;-44
2023/10/13 15:11:26;;;;;;;8.40;3.00;;;;;;;29.43;23.36;99870.91;5050365;28;20107;-44
2023/10/13 15:13:52;;;;;;;8.20;2.95;;;;;;;29.40;23.97;99868.84;5050379;28;20036;-43